Airfield :
LOGIN :

Register | Disclaimer

   EN    FR    IT 

 










Legend :    VFR   Marginal VFR   IFR   Intensive IFR   Very Intensive IFR
Visi :
Ceiling :
>= 8 km
>= 3000ft
5 to 8 km
1000 to 3000 ft
1500m to 5 km
500 to 1000 ft
800 to 1500m
200 to 500 ft
< 800m
< 200 ft
Symbols :   Thunderstorms  Fog  Heavy snow  Heavy precipitations  Wind > 20 kt
SIGMETs :     Misc.  Thunderstorms  Icing  Turbulence  Mountain Waves  Volcanic Ashes







- Airport Elevation : 17 ft
- IATA code : GRQ


EHGG - Groningen Eelde

CURRENT METAR :
  • 240725Z AUTO 15008KT 110V180 9999 NSC 17/10 Q0998 NOSIG

EXPIRED METARs :
  • 240655Z AUTO 13006KT 100V170 9999 NSC 15/10 Q0998 NOSIG
  • 240625Z AUTO 12005KT 080V160 9999 NSC 14/09 Q0998 NOSIG
  • 240555Z AUTO 11006KT 080V150 9999 NSC 13/09 Q0998 NOSIG
  • 240525Z AUTO 11006KT 090V160 9999 NSC 13/08 Q0998 TEMPO -SHRA FEW070CB
  • 240455Z AUTO 12005KT 090V160 9999 NSC 13/08 Q0998 TEMPO -SHRA FEW070CB

TAF TAF EHGG
Valid from the 24 at 06:00 until the 25 at 12:00 UTC


240519Z 2406/2512 15010KT CAVOK
PROB30
TEMPO 2406/2410 7000 -SHRA FEW070CB
BECMG 2409/2412 15015G25KT
BECMG 2419/2422 22011KT
PROB40
TEMPO 2420/2501 22018G30KT 4000 RA SHRA BKN030 SCT070CB
BECMG 2421/2424 18010KT
BECMG 2503/2506 15008KT
BECMG 2509/2512 16015G25KT
No reported NOTAMs for that airfield.



MET'MAP, your aeronautical weather chart ! - Copyright ORBIFLY December 2007 - Disclaimer

ORBIFLY MET'MAP TEAM :

Programming & Development : Alexandra Zaïnal
Concept & Development : Baudouin d'Aumeries
Co-Development & Prog : Marc-Olivier Méhu
Technical & hardware support : Manuel Goepfert

Contact : metmap@orbifly.com




SOURCES & CREDITS :

   NOAA